Time;durP1;ratioP1;P1;durP2;ratioP2;P2;SDS_P1;SDS_P2;PMS_P1;PMS_P2;Temp;Humidity;BMP_temperature;BMP_pressure;BME280_temperature;BME280_humidity;BME280_pressure;Samples;Min_cycle;Max_cycle;Signal;HPM_P1;HPM_P2
2023/01/26 00:00:11;;;;;;;7.60;5.70;;;;;;;-1.30;64.76;98098.12;110595;1242;68726;-71
2023/01/26 00:03:01;;;;;;;8.20;5.30;;;;;;;-1.30;64.80;98095.20;110465;1242;70929;-71
2023/01/26 00:05:31;;;;;;;7.20;4.40;;;;;;;-1.29;64.67;98094.88;110561;1242;58918;-71
2023/01/26 00:08:00;;;;;;;7.10;5.00;;;;;;;-1.28;63.85;98092.98;110599;1241;58840;-71
2023/01/26 00:10:30;;;;;;;5.90;4.60;;;;;;;-1.28;63.75;98090.25;110618;1239;69763;-72
2023/01/26 00:12:59;;;;;;;7.10;4.90;;;;;;;-1.27;63.79;98089.71;110591;1242;68713;-71
2023/01/26 00:15:28;;;;;;;6.80;5.10;;;;;;;-1.27;63.82;98089.38;110390;1242;68571;-71
2023/01/26 00:17:59;;;;;;;5.60;4.30;;;;;;;-1.27;63.92;98087.14;110587;1242;58861;-71
2023/01/26 00:20:29;;;;;;;7.50;5.10;;;;;;;-1.27;63.36;98083.55;110147;1241;58894;-71
2023/01/26 00:22:59;;;;;;;6.80;5.10;;;;;;;-1.25;63.27;98080.77;110428;1240;70988;-71
2023/01/26 00:25:28;;;;;;;6.50;4.50;;;;;;;-1.24;63.84;98077.70;110618;1242;69307;-71
2023/01/26 00:27:58;;;;;;;5.30;3.90;;;;;;;-1.22;63.70;98079.55;110569;1241;68415;-71
2023/01/26 00:30:27;;;;;;;7.80;5.00;;;;;;;-1.22;63.54;98077.32;110452;1242;58847;-71
2023/01/26 00:32:58;;;;;;;6.70;5.30;;;;;;;-1.24;63.42;98069.81;110299;1242;58880;-71
2023/01/26 00:35:28;;;;;;;8.40;5.50;;;;;;;-1.23;62.90;98067.94;110580;1249;69828;-71
2023/01/26 00:37:58;;;;;;;11.50;8.60;;;;;;;-1.24;63.24;98064.00;110556;1241;69249;-71
2023/01/26 00:40:27;;;;;;;10.10;6.50;;;;;;;-1.25;64.12;98063.33;110446;1241;68312;-71
2023/01/26 00:42:58;;;;;;;8.40;6.20;;;;;;;-1.26;63.80;98064.54;110486;1242;58802;-71
2023/01/26 00:45:27;;;;;;;8.60;6.30;;;;;;;-1.26;64.27;98062.84;110495;1242;58958;-71
2023/01/26 00:47:59;;;;;;;9.20;5.90;;;;;;;-1.26;63.91;98063.51;110514;1243;69686;-71
2023/01/26 00:50:30;;;;;;;8.90;5.70;;;;;;;-1.27;63.26;98062.00;110520;1242;68725;-71
2023/01/26 00:53:00;;;;;;;9.20;6.10;;;;;;;-1.28;63.11;98060.66;110642;1242;69503;-71
2023/01/26 00:55:32;;;;;;;8.80;6.30;;;;;;;-1.29;63.16;98059.80;110299;1241;58923;-72
2023/01/26 00:58:06;;;;;;;6.70;5.20;;;;;;;-1.29;63.41;98061.01;110130;1241;58917;-72
2023/01/26 01:00:37;;;;;;;7.90;5.10;;;;;;;-1.28;63.38;98060.65;110290;1242;69794;-71
2023/01/26 01:03:09;;;;;;;9.10;5.60;;;;;;;-1.28;63.77;98055.86;110323;1242;68665;-71
2023/01/26 01:05:39;;;;;;;9.60;5.70;;;;;;;-1.29;63.76;98057.06;110283;1242;68494;-70
2023/01/26 01:08:10;;;;;;;7.00;5.10;;;;;;;-1.29;63.53;98054.16;110472;1242;58902;-70
2023/01/26 01:10:41;;;;;;;9.10;5.70;;;;;;;-1.28;63.44;98047.32;110378;1242;58918;-70
2023/01/26 01:13:11;;;;;;;7.00;5.10;;;;;;;-1.29;63.31;98042.70;110448;1242;71206;-71
2023/01/26 01:15:42;;;;;;;9.50;5.90;;;;;;;-1.28;63.51;98037.39;110503;1242;69080;-70
2023/01/26 01:18:12;;;;;;;10.20;6.40;;;;;;;-1.27;64.44;98034.48;110166;1244;69238;-70
2023/01/26 01:20:42;;;;;;;8.20;6.40;;;;;;;-1.27;65.19;98034.80;110471;1242;58863;-70
2023/01/26 01:23:12;;;;;;;7.80;4.90;;;;;;;-1.25;65.08;98037.00;110152;1245;58842;-70
2023/01/26 01:25:45;;;;;;;8.80;5.80;;;;;;;-1.25;64.38;98032.36;110323;1241;69630;-70
2023/01/26 01:28:15;;;;;;;8.50;5.60;;;;;;;-1.23;63.84;98031.85;110243;1241;68810;-71
2023/01/26 01:30:44;;;;;;;10.70;6.50;;;;;;;-1.24;63.65;98028.60;110192;1245;69881;-70
2023/01/26 01:33:14;;;;;;;10.00;6.70;;;;;;;-1.24;63.80;98027.06;110189;1245;58938;-69
2023/01/26 01:35:58;;;;;;;8.70;6.30;;;;;;;-1.24;64.00;98027.59;110170;1244;59326;-70
2023/01/26 01:38:27;;;;;;;8.90;6.80;;;;;;;-1.25;64.00;98024.33;110309;1241;71440;-69
2023/01/26 01:40:58;;;;;;;10.40;6.40;;;;;;;-1.24;63.66;98020.39;110213;1245;69154;-70
2023/01/26 01:43:29;;;;;;;8.90;6.00;;;;;;;-1.26;63.51;98015.29;110232;1242;68508;-72
2023/01/26 01:46:24;;;;;;;10.80;6.30;;;;;;;-1.27;63.73;98011.39;110164;1241;58905;-70
2023/01/26 01:49:10;;;;;;;9.70;7.10;;;;;;;-1.29;63.49;98006.28;110169;1241;58945;-70
2023/01/26 01:52:04;;;;;;;9.50;5.90;;;;;;;-1.30;63.64;98010.05;110172;1241;71069;-70
2023/01/26 01:54:52;;;;;;;9.60;6.00;;;;;;;-1.32;63.67;98006.66;110246;1240;69431;-71
2023/01/26 01:57:28;;;;;;;10.80;6.20;;;;;;;-1.34;63.50;98001.55;110105;1246;69323;-71
2023/01/26 02:00:08;;;;;;;7.90;5.90;;;;;;;-1.35;63.36;98001.05;110210;1241;59264;-71
2023/01/26 02:03:09;;;;;;;9.60;6.50;;;;;;;-1.38;63.86;97996.49;110201;1243;58890;-71
2023/01/26 02:05:51;;;;;;;10.30;6.70;;;;;;;-1.37;63.30;97996.84;110130;1245;70609;-71
2023/01/26 02:08:25;;;;;;;7.50;5.80;;;;;;;-1.37;62.98;97992.22;110206;1245;69156;-71
2023/01/26 02:11:00;;;;;;;8.60;5.90;;;;;;;-1.38;63.25;97985.56;110279;1246;68322;-71
2023/01/26 02:13:32;;;;;;;9.40;6.70;;;;;;;-1.39;63.44;97988.98;110151;1244;58883;-71
2023/01/26 02:16:03;;;;;;;7.80;5.80;;;;;;;-1.40;63.35;97983.35;110168;1240;58904;-71
2023/01/26 02:18:33;;;;;;;9.00;6.20;;;;;;;-1.40;63.27;97984.05;110219;1245;70541;-71
2023/01/26 02:21:06;;;;;;;9.40;6.10;;;;;;;-1.41;63.05;97976.04;110214;1242;68373;-72
2023/01/26 02:23:58;;;;;;;10.30;6.50;;;;;;;-1.41;63.09;97976.38;110260;1245;69083;-70
2023/01/26 02:26:36;;;;;;;10.40;6.10;;;;;;;-1.42;63.24;97979.30;110256;1242;58879;-72
2023/01/26 02:29:10;;;;;;;9.90;6.60;;;;;;;-1.43;63.14;97976.75;110266;1243;58934;-71
2023/01/26 02:31:43;;;;;;;10.20;6.10;;;;;;;-1.43;63.20;97975.20;110217;1243;70943;-72
2023/01/26 02:34:13;;;;;;;10.20;6.10;;;;;;;-1.44;63.33;97972.31;110347;1244;68477;-72
2023/01/26 02:36:44;;;;;;;8.90;5.90;;;;;;;-1.43;63.38;97968.38;110327;1243;69302;-71
2023/01/26 02:39:29;;;;;;;8.40;6.00;;;;;;;-1.45;63.51;97968.05;110320;1242;58923;-71
2023/01/26 02:44:48;;;;;;;9.60;6.00;;;;;;;-1.46;63.23;97961.08;110197;1245;69008;-70
2023/01/26 02:47:18;;;;;;;7.90;6.30;;;;;;;-1.46;63.23;97961.07;110206;1251;69609;-70
2023/01/26 02:49:51;;;;;;;10.40;6.00;;;;;;;-1.46;63.42;97959.54;110143;1247;69279;-71
2023/01/26 02:52:25;;;;;;;7.80;5.90;;;;;;;-1.48;63.55;97959.22;110153;1243;59383;-71
2023/01/26 02:58:11;;;;;;;7.70;5.40;;;;;;;-1.48;62.68;97956.30;110177;1242;69958;-71
2023/01/26 03:00:41;;;;;;;8.70;5.90;;;;;;;-1.47;62.85;97955.29;110185;1244;69064;-71
2023/01/26 03:03:15;;;;;;;7.10;5.00;;;;;;;-1.47;62.85;97953.56;110137;1246;69257;-71
2023/01/26 03:05:45;;;;;;;7.50;5.10;;;;;;;-1.47;62.84;97951.70;110235;1242;58889;-71
2023/01/26 03:08:16;;;;;;;9.30;5.80;;;;;;;-1.48;63.08;97950.66;110165;1242;58892;-71
2023/01/26 03:10:46;;;;;;;7.10;5.20;;;;;;;-1.48;63.07;97945.88;110215;1245;69830;-71
2023/01/26 03:13:16;;;;;;;8.90;6.20;;;;;;;-1.48;63.16;97946.73;110189;1245;68820;-71
2023/01/26 03:15:51;;;;;;;8.70;5.50;;;;;;;-1.51;62.97;97944.91;110134;1245;68233;-72
2023/01/26 03:29:45;;;;;;;8.90;5.60;;;;;;;-1.54;63.08;97936.05;110161;1244;69183;-71
2023/01/26 03:32:16;;;;;;;7.80;5.70;;;;;;;-1.55;63.33;97930.10;109872;1242;733675;-71
2023/01/26 03:34:45;;;;;;;;;;;;;;;-1.55;63.14;97926.86;110605;1242;58950;-69
2023/01/26 03:37:21;;;;;;;8.30;5.30;;;;;;;-1.56;63.22;97925.83;110250;1246;69990;-71
2023/01/26 03:56:55;;;;;;;9.30;5.50;;;;;;;-1.57;63.15;97910.13;110188;1242;68563;-70
2023/01/26 03:59:37;;;;;;;7.90;5.60;;;;;;;-1.58;63.39;97908.42;110143;1244;58872;-71
2023/01/26 04:08:23;;;;;;;10.60;6.10;;;;;;;-1.58;63.36;97901.08;110499;1240;68544;-71
2023/01/26 04:10:58;;;;;;;7.20;5.40;;;;;;;-1.59;63.69;97895.45;110332;1242;69629;-71
2023/01/26 04:22:03;;;;;;;11.40;7.40;;;;;;;-1.58;64.25;97880.91;110212;1242;68909;-70
2023/01/26 04:24:35;;;;;;;10.60;6.30;;;;;;;-1.59;64.61;97880.94;110182;1242;69287;-70
2023/01/26 04:27:05;;;;;;;9.90;7.30;;;;;;;-1.59;64.28;97878.55;110094;1241;59265;-72
2023/01/26 04:29:39;;;;;;;10.80;7.20;;;;;;;-1.61;64.34;97874.65;110186;1242;58884;-71
2023/01/26 04:32:09;;;;;;;11.30;7.50;;;;;;;-1.61;64.75;97876.52;110408;1242;70593;-72
2023/01/26 04:34:39;;;;;;;11.20;8.00;;;;;;;-1.61;64.46;97872.44;110188;1246;69858;-72
2023/01/26 04:37:15;;;;;;;10.90;8.10;;;;;;;-1.62;64.83;97870.56;110355;1242;70082;-72
2023/01/26 04:39:48;;;;;;;10.40;8.00;;;;;;;-1.61;64.64;97868.67;110388;1242;58858;-72
2023/01/26 04:42:18;;;;;;;10.10;7.50;;;;;;;-1.62;64.69;97868.35;110439;1244;58839;-72
2023/01/26 04:44:48;;;;;;;8.80;7.00;;;;;;;-1.61;64.73;97868.67;110123;1241;69581;-71
2023/01/26 04:47:20;;;;;;;10.80;7.00;;;;;;;-1.61;64.63;97868.67;110134;1245;68538;-71
2023/01/26 04:49:50;;;;;;;9.20;6.90;;;;;;;-1.62;64.58;97868.85;110180;1241;68497;-71
2023/01/26 04:52:23;;;;;;;8.40;6.00;;;;;;;-1.62;64.87;97867.65;110140;1240;58953;-71
2023/01/26 04:54:52;;;;;;;10.50;7.80;;;;;;;-1.62;65.12;97863.55;110179;1245;58924;-72
2023/01/26 04:57:23;;;;;;;10.20;7.30;;;;;;;-1.62;64.81;97860.64;110159;1244;71081;-72
2023/01/26 04:59:52;;;;;;;10.20;7.20;;;;;;;-1.63;65.16;97862.88;110184;1246;69291;-71
2023/01/26 05:02:22;;;;;;;10.60;6.50;;;;;;;-1.64;65.26;97866.65;110163;1246;68870;-71
2023/01/26 05:04:51;;;;;;;10.50;6.60;;;;;;;-1.63;64.94;97864.77;110160;1245;58933;-72
2023/01/26 05:07:21;;;;;;;9.80;6.50;;;;;;;-1.63;64.99;97865.95;110351;1242;58898;-72
2023/01/26 05:09:50;;;;;;;7.90;6.10;;;;;;;-1.64;65.40;97861.86;110146;1241;71210;-72
2023/01/26 05:12:41;;;;;;;8.30;6.10;;;;;;;-1.64;65.29;97856.77;110322;1240;69726;-71
2023/01/26 05:15:33;;;;;;;11.50;6.90;;;;;;;-1.64;66.40;97859.31;110542;1249;69913;-72
2023/01/26 05:18:11;;;;;;;8.70;6.50;;;;;;;-1.64;65.45;97859.98;110391;1241;58970;-72
2023/01/26 05:21:00;;;;;;;10.60;6.70;;;;;;;-1.64;65.10;97861.20;110509;1242;58874;-72
2023/01/26 05:23:39;;;;;;;9.00;7.00;;;;;;;-1.65;65.19;97862.75;110532;1241;70949;-72
2023/01/26 05:26:16;;;;;;;9.30;7.00;;;;;;;-1.66;65.58;97859.51;110525;1242;70182;-72
2023/01/26 05:29:02;;;;;;;9.80;5.90;;;;;;;-1.66;66.01;97862.43;110497;1243;69880;-72
2023/01/26 05:31:32;;;;;;;9.70;6.60;;;;;;;-1.67;65.82;97864.31;110481;1242;58873;-72
2023/01/26 05:34:01;;;;;;;9.10;6.90;;;;;;;-1.68;66.53;97864.16;110193;1244;58891;-73
2023/01/26 05:36:31;;;;;;;9.20;6.90;;;;;;;-1.70;66.65;97860.78;110168;1241;69811;-73
2023/01/26 05:39:01;;;;;;;9.20;6.20;;;;;;;-1.71;66.49;97861.98;110514;1242;69211;-70
2023/01/26 05:41:31;;;;;;;8.90;5.70;;;;;;;-1.73;66.80;97854.52;110387;1242;69217;-70
2023/01/26 05:44:36;;;;;;;8.40;5.80;;;;;;;-1.74;65.99;97851.96;109824;1249;58895;-71
2023/01/26 05:47:13;;;;;;;7.80;5.10;;;;;;;-1.77;65.67;97853.22;110265;1243;58839;-71
2023/01/26 05:49:44;;;;;;;7.60;6.30;;;;;;;-1.78;65.64;97853.07;110166;1244;69699;-71
2023/01/26 05:52:20;;;;;;;9.70;5.80;;;;;;;-1.80;66.30;97855.83;110487;1242;70076;-71
2023/01/26 05:54:50;;;;;;;8.40;5.90;;;;;;;-1.81;66.17;97856.52;110198;1244;69257;-71
2023/01/26 05:57:20;;;;;;;8.90;5.80;;;;;;;-1.82;65.78;97854.99;110444;1241;58919;-70
2023/01/26 05:59:57;;;;;;;6.80;5.00;;;;;;;-1.84;65.48;97851.11;110416;1241;58887;-71
2023/01/26 06:02:27;;;;;;;9.40;6.20;;;;;;;-1.86;65.60;97852.15;110153;1246;70887;-71
2023/01/26 06:04:57;;;;;;;7.60;5.10;;;;;;;-1.85;65.80;97853.69;110334;1240;69740;-71
2023/01/26 06:07:26;;;;;;;8.70;6.10;;;;;;;-1.86;65.66;97853.70;110402;1241;69343;-71
2023/01/26 06:10:14;;;;;;;6.70;5.30;;;;;;;-1.86;65.80;97854.89;110472;1241;58938;-72
2023/01/26 06:12:59;;;;;;;6.80;5.20;;;;;;;-1.85;65.48;97853.02;110320;1242;58917;-72
2023/01/26 06:15:45;;;;;;;9.50;6.30;;;;;;;-1.83;65.20;97852.80;110310;1241;71500;-72
2023/01/26 06:18:15;;;;;;;12.30;8.10;;;;;;;-1.81;65.18;97853.09;110301;1242;69098;-72
2023/01/26 06:20:50;;;;;;;12.50;7.90;;;;;;;-1.78;65.40;97846.21;110417;1242;69600;-72
2023/01/26 06:23:19;;;;;;;14.40;8.60;;;;;;;-1.75;66.86;97843.60;110200;1246;59034;-71
2023/01/26 06:25:50;;;;;;;20.40;12.70;;;;;;;-1.71;66.31;97839.27;110186;1243;58875;-71
2023/01/26 06:28:20;;;;;;;34.10;18.30;;;;;;;-1.69;65.89;97838.55;110228;1242;69647;-71
2023/01/26 06:30:49;;;;;;;27.70;15.20;;;;;;;-1.69;66.43;97834.29;110252;1242;69052;-71
2023/01/26 06:33:21;;;;;;;18.10;12.40;;;;;;;-1.71;66.25;97828.86;110114;1246;69191;-71
2023/01/26 06:35:53;;;;;;;14.60;10.30;;;;;;;-1.74;66.02;97826.16;110095;1245;58880;-71
2023/01/26 06:38:22;;;;;;;12.00;8.40;;;;;;;-1.77;65.96;97824.83;110111;1245;58995;-71
2023/01/26 06:40:52;;;;;;;13.60;8.60;;;;;;;-1.79;66.03;97834.11;110089;1240;70211;-71
2023/01/26 06:43:22;;;;;;;13.40;9.50;;;;;;;-1.79;65.62;97833.44;110123;1241;68681;-72
2023/01/26 06:45:50;;;;;;;16.60;10.20;;;;;;;-1.79;65.27;97832.05;110206;1242;69269;-71
2023/01/26 06:48:21;;;;;;;19.20;12.50;;;;;;;-1.78;65.33;97830.16;110202;1241;58876;-72
2023/01/26 06:50:51;;;;;;;17.30;11.50;;;;;;;-1.77;65.21;97828.42;110119;1244;58967;-71
2023/01/26 06:53:29;;;;;;;16.70;11.00;;;;;;;-1.75;65.21;97828.05;110126;1245;70466;-71
2023/01/26 06:56:18;;;;;;;15.70;10.40;;;;;;;-1.70;65.24;97831.41;110191;1240;69248;-71
2023/01/26 06:58:58;;;;;;;15.40;10.80;;;;;;;-1.67;65.32;97827.91;110238;1242;70077;-73
2023/01/26 07:01:47;;;;;;;14.90;10.60;;;;;;;-1.60;65.33;97826.44;110216;1242;58923;-70
2023/01/26 07:04:17;;;;;;;16.70;10.60;;;;;;;-1.52;65.30;97824.74;110258;1242;58933;-72
2023/01/26 07:06:45;;;;;;;19.10;11.00;;;;;;;-1.36;65.82;97821.20;110232;1242;71191;-71
2023/01/26 07:09:15;;;;;;;14.10;9.70;;;;;;;-0.96;66.09;97821.62;110231;1242;70199;-71
2023/01/26 07:11:48;;;;;;;22.50;12.90;;;;;;;-0.36;65.17;97820.15;110143;1242;69782;-71
2023/01/26 07:14:17;;;;;;;14.00;9.10;;;;;;;0.24;62.67;97820.11;110190;1242;58883;-71
2023/01/26 07:16:47;;;;;;;17.50;10.60;;;;;;;0.77;59.87;97818.71;110200;1242;58926;-70
2023/01/26 07:19:16;;;;;;;13.60;9.60;;;;;;;1.29;56.69;97814.33;110170;1240;69833;-71
2023/01/26 07:21:45;;;;;;;12.10;8.00;;;;;;;1.94;61.35;97820.09;110226;1242;69231;-72
2023/01/26 07:24:14;;;;;;;11.40;8.00;;;;;;;2.61;58.06;97821.64;110225;1242;69338;-71
2023/01/26 07:26:42;;;;;;;11.10;6.90;;;;;;;3.28;57.85;97816.84;110173;1243;58932;-72
2023/01/26 07:29:11;;;;;;;9.90;6.00;;;;;;;3.78;54.61;97817.00;110185;1243;58865;-71
2023/01/26 07:31:40;;;;;;;9.50;6.60;;;;;;;4.14;50.22;97814.88;110198;1249;71149;-72
2023/01/26 07:34:10;;;;;;;10.30;6.30;;;;;;;4.58;53.07;97810.98;110154;1240;69234;-71
2023/01/26 07:36:39;;;;;;;7.50;4.70;;;;;;;4.89;50.47;97810.17;110194;1242;67882;-71
2023/01/26 07:39:08;;;;;;;6.30;5.00;;;;;;;5.25;50.32;97807.70;110114;1246;58934;-72
2023/01/26 07:41:36;;;;;;;7.40;5.00;;;;;;;5.48;50.01;97804.60;110197;1242;58875;-72
2023/01/26 07:44:24;;;;;;;9.30;6.10;;;;;;;5.63;45.01;97810.50;110221;1242;70657;-72
2023/01/26 07:46:54;;;;;;;9.40;6.60;;;;;;;5.76;43.81;97803.11;110213;1242;69416;-72
2023/01/26 07:49:23;;;;;;;8.50;5.20;;;;;;;6.26;45.88;97801.45;110249;1249;69244;-72
2023/01/26 07:51:52;;;;;;;5.20;3.90;;;;;;;6.51;43.81;97801.40;110185;1245;58864;-72
2023/01/26 07:54:22;;;;;;;5.80;4.70;;;;;;;6.73;43.82;97798.77;110195;1242;58867;-71
2023/01/26 07:56:54;;;;;;;7.10;5.40;;;;;;;6.61;41.61;97798.63;110232;1241;70162;-72
2023/01/26 07:59:23;;;;;;;6.90;5.30;;;;;;;6.74;39.50;97795.89;110282;1241;69217;-72
2023/01/26 08:01:51;;;;;;;6.00;4.60;;;;;;;6.99;39.26;97797.73;110277;1242;69906;-71
2023/01/26 08:04:20;;;;;;;8.80;5.00;;;;;;;7.10;38.35;97797.34;110256;1243;58958;-72
2023/01/26 08:06:52;;;;;;;5.00;4.00;;;;;;;7.47;39.20;97794.68;110317;1242;58928;-70
2023/01/26 08:09:23;;;;;;;6.00;4.40;;;;;;;7.82;38.49;97795.67;110273;1241;71643;-72
2023/01/26 08:11:55;;;;;;;6.30;4.00;;;;;;;8.22;38.90;97797.80;110284;1241;69227;-73
2023/01/26 08:14:23;;;;;;;6.60;4.00;;;;;;;8.62;39.41;97795.13;110298;1240;69168;-73
2023/01/26 08:16:56;;;;;;;6.00;4.20;;;;;;;8.68;38.51;97791.45;110307;1242;58953;-72
2023/01/26 08:19:25;;;;;;;5.70;3.80;;;;;;;8.90;37.72;97788.78;110360;1242;58879;-73
2023/01/26 08:21:56;;;;;;;5.60;4.10;;;;;;;8.68;36.65;97793.01;110365;1242;70932;-72
2023/01/26 08:24:26;;;;;;;5.50;4.20;;;;;;;8.92;35.93;97790.02;110283;1241;68547;-71
2023/01/26 08:26:55;;;;;;;;;;;;;;;9.28;38.48;97787.19;110286;1242;69119;-71
2023/01/26 08:29:24;;;;;;;6.10;4.70;;;;;;;9.44;36.54;97788.80;110267;1248;58966;-72
2023/01/26 08:31:54;;;;;;;6.60;4.70;;;;;;;9.05;35.42;97786.80;110319;1242;58942;-71
2023/01/26 08:34:25;;;;;;;6.70;4.40;;;;;;;9.15;35.11;97784.62;110343;1242;70901;-71
2023/01/26 08:36:54;;;;;;;5.30;4.10;;;;;;;8.94;35.01;97779.15;110254;1241;69397;-71
2023/01/26 08:39:23;;;;;;;6.00;4.70;;;;;;;8.32;35.20;97782.27;110239;1242;69853;-71
2023/01/26 08:41:52;;;;;;;6.20;4.50;;;;;;;8.54;35.68;97774.06;110275;1242;58934;-71
2023/01/26 08:44:21;;;;;;;5.30;4.20;;;;;;;8.91;35.48;97770.99;110291;1242;58880;-71
2023/01/26 08:46:50;;;;;;;5.20;4.30;;;;;;;9.33;35.70;97776.41;110240;1242;69853;-72
2023/01/26 08:49:18;;;;;;;5.20;3.90;;;;;;;9.25;33.95;97777.96;110258;1241;68516;-71
2023/01/26 08:51:47;;;;;;;5.60;4.00;;;;;;;9.94;35.35;97786.13;110216;1244;69760;-71
2023/01/26 08:54:16;;;;;;;4.80;3.60;;;;;;;10.24;34.57;97783.69;110226;1241;58936;-70
2023/01/26 08:56:46;;;;;;;4.50;3.30;;;;;;;10.34;33.14;97780.79;110315;1241;58896;-72
2023/01/26 08:59:15;;;;;;;5.20;4.10;;;;;;;10.29;32.48;97777.66;110288;1241;70101;-73
2023/01/26 09:01:44;;;;;;;4.60;3.70;;;;;;;9.85;32.45;97776.12;110224;1243;68342;-71
2023/01/26 09:04:12;;;;;;;5.10;3.80;;;;;;;10.04;32.43;97771.04;110301;1243;69846;-72
2023/01/26 09:06:41;;;;;;;5.00;3.80;;;;;;;10.67;33.87;97761.34;110322;1242;58930;-71
2023/01/26 09:09:12;;;;;;;5.50;4.00;;;;;;;10.85;32.41;97753.65;110255;1242;58821;-71
2023/01/26 09:11:40;;;;;;;5.50;3.90;;;;;;;10.69;32.33;97749.35;110261;1242;70621;-71
2023/01/26 09:14:09;;;;;;;4.90;4.10;;;;;;;9.96;32.44;97752.05;110249;1242;69199;-70
2023/01/26 09:16:38;;;;;;;5.50;4.10;;;;;;;9.95;32.41;97744.27;110274;1243;69641;-71
2023/01/26 09:19:07;;;;;;;6.00;4.20;;;;;;;10.15;32.75;97740.77;110237;1243;58885;-70
2023/01/26 09:21:36;;;;;;;4.30;3.40;;;;;;;11.00;32.35;97735.16;110242;1242;58904;-71
2023/01/26 09:24:06;;;;;;;5.40;3.80;;;;;;;10.88;30.83;97730.27;110254;1249;69884;-71
2023/01/26 09:26:35;;;;;;;5.80;4.30;;;;;;;10.81;31.21;97731.27;110280;1244;69268;-70
2023/01/26 09:29:04;;;;;;;5.00;3.60;;;;;;;10.27;30.86;97730.37;110225;1243;69900;-69
2023/01/26 09:31:33;;;;;;;6.50;3.90;;;;;;;11.17;31.13;97728.91;110216;1242;58889;-71
2023/01/26 09:34:02;;;;;;;6.10;4.70;;;;;;;11.21;30.15;97720.98;110201;1244;58831;-71
2023/01/26 09:36:32;;;;;;;5.90;4.40;;;;;;;11.66;30.42;97720.04;110215;1240;71161;-72
2023/01/26 09:39:01;;;;;;;;;;;;;;;12.33;30.05;97712.30;110300;1242;69798;-71
2023/01/26 09:41:32;;;;;;;6.10;3.50;;;;;;;12.35;29.47;97708.56;110255;1242;69854;-70
2023/01/26 09:44:11;;;;;;;4.80;3.50;;;;;;;12.74;29.28;97696.61;110217;1242;59042;-69
2023/01/26 09:46:42;;;;;;;5.10;3.30;;;;;;;13.20;28.69;97693.94;110214;1240;58927;-72
2023/01/26 09:49:20;;;;;;;4.60;3.60;;;;;;;13.47;28.88;97694.92;110205;1242;70547;-70
2023/01/26 09:52:02;;;;;;;4.60;3.50;;;;;;;13.22;27.16;97696.33;110252;1241;68443;-72
2023/01/26 09:54:45;;;;;;;4.70;3.80;;;;;;;12.87;27.84;97691.23;110235;1242;69234;-71
2023/01/26 09:57:29;;;;;;;4.70;3.60;;;;;;;12.40;27.61;97688.02;110289;1242;58935;-72
2023/01/26 10:00:08;;;;;;;5.50;3.90;;;;;;;11.90;28.25;97686.32;110240;1241;58878;-70
2023/01/26 10:02:48;;;;;;;4.60;3.70;;;;;;;13.41;28.10;97673.49;110296;1243;71218;-72
2023/01/26 10:05:31;;;;;;;5.20;3.70;;;;;;;13.80;27.21;97664.46;110309;1241;69282;-72
2023/01/26 10:08:07;;;;;;;5.30;4.50;;;;;;;13.03;27.26;97664.31;110293;1245;69883;-71
2023/01/26 10:10:41;;;;;;;6.40;4.90;;;;;;;13.92;27.49;97664.28;110243;1246;59382;-72
2023/01/26 10:13:13;;;;;;;5.60;4.60;;;;;;;13.97;26.15;97656.55;110214;1245;58885;-70
2023/01/26 10:15:49;;;;;;;5.00;3.90;;;;;;;13.29;25.99;97654.48;110230;1242;69673;-71
2023/01/26 10:18:27;;;;;;;5.20;4.30;;;;;;;12.05;27.83;97660.20;110291;1242;69558;-73
2023/01/26 10:21:00;;;;;;;5.40;4.20;;;;;;;12.49;27.13;97653.59;110232;1247;69916;-71
2023/01/26 10:23:31;;;;;;;8.20;6.60;;;;;;;13.01;27.95;97647.98;110222;1245;58950;-70
2023/01/26 10:26:13;;;;;;;5.20;4.50;;;;;;;13.82;26.48;97641.29;110134;1244;59030;-70
2023/01/26 10:28:45;;;;;;;5.40;4.40;;;;;;;14.50;26.05;97631.96;110196;1242;69881;-70
2023/01/26 10:31:17;;;;;;;6.00;4.90;;;;;;;14.56;25.68;97629.69;110184;1241;68611;-72
2023/01/26 10:33:54;;;;;;;6.60;4.90;;;;;;;14.56;25.52;97621.45;110287;1241;69869;-71
2023/01/26 10:36:24;;;;;;;6.20;4.80;;;;;;;14.55;25.83;97611.86;110309;1241;58928;-71
2023/01/26 10:38:53;;;;;;;6.10;5.20;;;;;;;14.90;25.10;97608.19;110280;1240;58880;-72
2023/01/26 10:41:27;;;;;;;7.20;5.50;;;;;;;15.25;25.45;97607.71;110334;1241;70530;-71
2023/01/26 10:44:14;;;;;;;6.00;4.90;;;;;;;15.32;24.99;97607.79;110167;1243;69721;-70
2023/01/26 10:46:43;;;;;;;6.40;5.00;;;;;;;15.82;24.29;97604.76;110138;1243;69138;-71
2023/01/26 10:49:13;;;;;;;5.40;4.30;;;;;;;15.04;24.83;97604.68;110149;1244;58935;-71
2023/01/26 10:51:44;;;;;;;5.60;4.50;;;;;;;15.35;24.41;97603.34;110162;1241;58952;-71
2023/01/26 10:54:24;;;;;;;4.70;4.00;;;;;;;15.44;23.83;97601.39;110189;1241;70446;-70
2023/01/26 10:56:55;;;;;;;5.80;4.40;;;;;;;15.01;24.43;97599.80;110191;1241;68573;-71
2023/01/26 10:59:26;;;;;;;5.00;4.10;;;;;;;14.65;25.30;97594.84;110126;1243;69891;-71
2023/01/26 11:02:01;;;;;;;5.20;3.80;;;;;;;15.90;24.06;97588.91;110186;1245;59277;-71
2023/01/26 11:04:30;;;;;;;6.10;4.50;;;;;;;16.14;24.30;97585.44;110168;1243;58915;-71
2023/01/26 11:07:23;;;;;;;5.50;4.50;;;;;;;15.66;23.65;97582.54;110234;1241;71248;-72
2023/01/26 11:09:54;;;;;;;5.20;4.40;;;;;;;15.34;24.95;97578.66;110175;1243;70171;-71
2023/01/26 11:12:25;;;;;;;5.20;4.30;;;;;;;15.80;24.06;97571.18;110251;1244;69772;-71
2023/01/26 11:15:03;;;;;;;5.70;3.80;;;;;;;15.78;24.58;97570.27;110245;1241;58940;-71
2023/01/26 11:17:58;;;;;;;5.90;4.20;;;;;;;16.13;24.53;97561.32;110194;1241;58998;-72
2023/01/26 11:20:45;;;;;;;4.70;4.30;;;;;;;16.04;24.07;97550.02;110150;1245;70994;-72
2023/01/26 11:23:56;;;;;;;5.80;4.40;;;;;;;15.25;24.37;97553.77;110180;1243;69695;-71
2023/01/26 11:26:36;;;;;;;7.40;4.00;;;;;;;15.26;24.48;97553.74;110107;1245;69188;-71
2023/01/26 11:29:05;;;;;;;;;;;;;;;14.26;26.16;97555.48;110180;1244;59272;-71
2023/01/26 11:31:45;;;;;;;5.50;3.90;;;;;;;14.65;25.63;97550.91;110136;1244;58869;-72
2023/01/26 11:34:28;;;;;;;4.60;3.30;;;;;;;14.23;26.53;97547.13;110154;1243;70133;-71
2023/01/26 11:37:15;;;;;;;5.00;4.00;;;;;;;15.51;25.35;97545.73;110155;1241;69348;-71
2023/01/26 11:40:01;;;;;;;4.30;3.30;;;;;;;16.64;25.03;97540.25;110162;1241;69170;-71
2023/01/26 11:42:44;;;;;;;5.00;4.10;;;;;;;16.58;24.21;97536.35;110171;1241;58860;-70
2023/01/26 11:45:29;;;;;;;5.30;4.40;;;;;;;15.23;25.29;97535.77;110134;1245;58875;-71
2023/01/26 11:48:39;;;;;;;5.20;3.90;;;;;;;15.87;24.84;97526.81;110176;1244;70532;-72
2023/01/26 11:51:09;;;;;;;5.10;3.70;;;;;;;15.44;25.75;97524.60;109447;1251;69254;-71
2023/01/26 11:53:56;;;;;;;5.00;3.90;;;;;;;16.19;24.94;97527.25;109590;1251;69316;-71
2023/01/26 11:56:43;;;;;;;5.70;3.60;;;;;;;15.68;24.67;97518.48;109964;1241;58951;-71
2023/01/26 11:59:18;;;;;;;4.10;3.00;;;;;;;14.96;25.70;97512.83;110205;1244;58937;-71
2023/01/26 12:01:57;;;;;;;4.40;3.60;;;;;;;16.15;24.52;97510.08;110196;1243;68944;-71
2023/01/26 12:04:27;;;;;;;4.90;3.80;;;;;;;15.56;24.74;97505.86;110170;1243;69215;-70
2023/01/26 12:07:21;;;;;;;4.50;3.40;;;;;;;16.44;24.47;97503.89;110165;1241;69919;-71
2023/01/26 12:09:51;;;;;;;3.90;3.10;;;;;;;17.10;23.57;97499.40;110178;1244;58882;-71
2023/01/26 12:12:34;;;;;;;4.20;3.00;;;;;;;15.71;24.64;97496.29;110160;1245;58925;-70
2023/01/26 12:15:16;;;;;;;4.20;3.40;;;;;;;15.64;25.20;97493.20;110156;1241;71174;-72
2023/01/26 12:17:51;;;;;;;;;;;;;;;15.75;25.15;97494.34;110177;1243;69819;-70
2023/01/26 12:20:38;;;;;;;4.30;3.10;;;;;;;16.13;24.52;97492.36;110158;1241;69222;-71
2023/01/26 12:23:07;;;;;;;4.00;3.60;;;;;;;16.23;24.55;97488.29;110149;1244;58878;-69
2023/01/26 12:26:02;;;;;;;3.70;2.90;;;;;;;16.16;24.51;97487.88;110151;1241;58896;-70
2023/01/26 12:29:20;;;;;;;5.30;3.40;;;;;;;15.96;24.69;97486.52;110162;1244;70553;-72
2023/01/26 12:31:55;;;;;;;4.20;2.90;;;;;;;15.64;25.89;97482.46;110026;1246;69772;-69
2023/01/26 12:34:28;;;;;;;3.80;3.00;;;;;;;16.21;24.80;97475.94;110124;1246;67420;-72
2023/01/26 12:37:14;;;;;;;4.80;3.40;;;;;;;15.91;25.00;97476.52;110165;1241;58943;-70
2023/01/26 12:40:06;;;;;;;4.00;3.00;;;;;;;16.54;24.50;97470.37;110161;1243;58902;-69
2023/01/26 12:43:12;;;;;;;4.00;3.40;;;;;;;16.58;24.20;97462.10;110177;1245;70395;-71
2023/01/26 12:45:45;;;;;;;3.50;2.70;;;;;;;16.61;24.12;97460.60;110144;1241;69215;-70